Alleman, Iowa
Current Conditions -  °F | °C
As of 11:15 PM on Friday 24 Oct 2014 (Local Time) from KIKV Reporting Station
Moderate Fog Moderate Fog  
Wind Chill: 50°   Ceiling: Unl
Heat Index: 50°   Visibility: 0mi
Dew Point: 50°   Wind: 0mph
Humidity: 100%   Direction: NA
Pressure: 29.96"   Gusts: NA
Location:  41.82°N, 93.61°W
Report Text: KIKV 250415Z AUTO 00000KT M1/4SM FG VV000 10/10 A2996 RMK AO2 VIS M1/4V5
Loading
Personal Weather Stations






























Interactive Weather Map
Tropical Storm Tracking
New forecast layout! Learn more

10-Day Weather Forecast

Advertisements
Track Severe Weather on mobile